Time;durP1;ratioP1;P1;durP2;ratioP2;P2;SDS_P1;SDS_P2;PMS_P1;PMS_P2;Temp;Humidity;BMP_temperature;BMP_pressure;BME280_temperature;BME280_humidity;BME280_pressure;Samples;Min_cycle;Max_cycle;Signal;HPM_P1;HPM_P2
2022/09/10 00:00:43;;;;;;;11.82;2.33;;;;;;;18.31;74.67;100874.44;5004304;28;20058;-68
2022/09/10 00:03:10;;;;;;;8.45;2.05;;;;;;;18.47;76.13;100876.09;5001230;28;20050;-68
2022/09/10 00:05:42;;;;;;;15.10;2.45;;;;;;;18.03;76.35;100882.13;4995992;28;20490;-67
2022/09/10 00:08:10;;;;;;;10.68;2.33;;;;;;;17.70;77.33;100879.63;4999269;28;20057;-67
2022/09/10 00:10:46;;;;;;;13.20;2.03;;;;;;;18.01;78.50;100888.03;4997500;28;20062;-67
2022/09/10 00:13:16;;;;;;;11.85;2.33;;;;;;;18.23;77.39;100881.03;5026472;28;20058;-67
2022/09/10 00:15:48;;;;;;;15.73;2.03;;;;;;;18.39;77.33;100888.22;5004865;28;20498;-67
2022/09/10 00:18:18;;;;;;;8.10;2.25;;;;;;;18.49;76.27;100886.88;4976775;28;20085;-67
2022/09/10 00:20:53;;;;;;;11.57;2.60;;;;;;;17.82;75.58;100888.75;4989898;28;20053;-67
2022/09/10 00:23:24;;;;;;;9.40;2.20;;;;;;;17.75;77.36;100893.31;4998899;28;20050;-67
2022/09/10 00:25:53;;;;;;;11.55;2.00;;;;;;;17.77;77.79;100891.78;4996230;28;20053;-68
2022/09/10 00:28:23;;;;;;;13.77;3.00;;;;;;;17.81;78.28;100887.13;4995430;28;20050;-67
2022/09/10 00:30:53;;;;;;;12.65;2.08;;;;;;;17.62;78.18;100877.84;4996753;28;20419;-67
2022/09/10 00:33:21;;;;;;;15.52;3.08;;;;;;;17.74;77.98;100880.56;4987536;28;20042;-68
2022/09/10 00:35:50;;;;;;;11.52;2.55;;;;;;;17.78;78.17;100879.47;4984296;28;20042;-66
2022/09/10 00:38:17;;;;;;;12.15;2.40;;;;;;;17.84;77.09;100878.06;4989111;28;20054;-67
2022/09/10 00:40:45;;;;;;;14.20;2.22;;;;;;;17.88;77.06;100875.34;4993736;28;20054;-67
2022/09/10 00:43:15;;;;;;;10.15;2.03;;;;;;;17.96;77.09;100875.19;4992144;28;20076;-67
2022/09/10 00:45:43;;;;;;;12.93;2.63;;;;;;;17.71;77.17;100875.72;5007624;28;20046;-67
2022/09/10 00:48:15;;;;;;;11.30;2.13;;;;;;;17.56;78.20;100874.50;5002289;28;20077;-67
2022/09/10 00:50:45;;;;;;;13.75;2.20;;;;;;;17.79;78.80;100872.75;5007790;28;20057;-67
2022/09/10 00:53:15;;;;;;;12.52;3.13;;;;;;;17.98;78.26;100874.81;4994786;28;20413;-66
2022/09/10 00:55:44;;;;;;;10.80;2.22;;;;;;;17.85;77.67;100862.94;5005038;28;20046;-68
2022/09/10 00:58:12;;;;;;;14.50;2.63;;;;;;;17.80;77.84;100857.63;4983192;28;20045;-69
2022/09/10 01:00:40;;;;;;;12.02;2.20;;;;;;;17.88;77.51;100862.25;4997981;28;20050;-67
2022/09/10 01:03:10;;;;;;;8.82;2.00;;;;;;;17.98;77.06;100864.50;4987628;28;20060;-67
2022/09/10 01:05:41;;;;;;;9.77;2.30;;;;;;;18.04;77.76;100862.25;5002586;28;20042;-66
2022/09/10 01:08:14;;;;;;;10.68;2.38;;;;;;;18.18;77.21;100873.75;4984925;28;20084;-66
2022/09/10 01:11:15;;;;;;;11.77;2.22;;;;;;;17.82;77.06;100866.44;4993258;28;20068;-67
2022/09/10 01:14:14;;;;;;;9.80;1.85;;;;;;;17.72;77.81;100863.38;4975147;28;20055;-68
2022/09/10 01:16:52;;;;;;;11.70;2.55;;;;;;;17.97;79.80;100851.69;4999942;28;20050;-67
2022/09/10 01:19:31;;;;;;;8.13;1.80;;;;;;;17.94;78.03;100857.19;4976563;28;20081;-66
2022/09/10 01:22:21;;;;;;;11.30;2.50;;;;;;;17.82;78.34;100854.50;4995941;28;20058;-67
2022/09/10 01:24:53;;;;;;;12.13;2.17;;;;;;;17.73;77.72;100860.22;4997008;28;20170;-68
2022/09/10 01:27:29;;;;;;;14.95;2.78;;;;;;;17.81;79.05;100859.28;4974331;28;20043;-68
2022/09/10 01:30:03;;;;;;;11.30;2.10;;;;;;;18.04;77.54;100862.25;4989792;28;20139;-67
2022/09/10 01:32:38;;;;;;;13.88;2.75;;;;;;;17.94;78.36;100862.75;4981409;28;20096;-67
2022/09/10 01:35:21;;;;;;;12.02;2.00;;;;;;;17.84;77.70;100866.09;4984812;28;20054;-67
2022/09/10 01:37:53;;;;;;;14.02;2.45;;;;;;;17.93;78.43;100863.94;5015418;28;20047;-67
2022/09/10 01:40:28;;;;;;;15.35;2.28;;;;;;;18.04;77.37;100861.44;5018532;28;20061;-68
2022/09/10 01:43:06;;;;;;;9.75;2.10;;;;;;;18.03;77.52;100866.19;4996666;28;20125;-67
2022/09/10 01:45:56;;;;;;;12.48;2.00;;;;;;;17.96;77.35;100863.22;4997170;28;20490;-68
2022/09/10 01:48:54;;;;;;;12.20;2.60;;;;;;;18.12;77.65;100869.59;4991929;28;20053;-67
2022/09/10 01:51:25;;;;;;;13.35;2.60;;;;;;;18.26;77.53;100860.78;4983226;28;20050;-67
2022/09/10 01:54:25;;;;;;;10.25;1.90;;;;;;;18.35;75.08;100866.97;5009755;28;20056;-68
2022/09/10 01:57:03;;;;;;;14.18;2.60;;;;;;;18.06;75.25;100864.66;5025080;28;20049;-67
2022/09/10 01:59:45;;;;;;;10.45;2.03;;;;;;;18.26;76.53;100874.72;4997717;28;20488;-68
2022/09/10 02:02:36;;;;;;;12.07;2.40;;;;;;;17.86;76.76;100872.94;5014222;28;20058;-67
2022/09/10 02:05:05;;;;;;;;;;;;;;;18.02;77.83;100874.91;4969921;28;20046;-68
2022/09/10 02:07:34;;;;;;;11.13;2.53;;;;;;;17.89;76.53;100871.38;4985285;28;19936;-68
2022/09/10 02:10:06;;;;;;;13.05;1.73;;;;;;;17.80;77.56;100868.78;4981246;28;20521;-67
2022/09/10 02:12:38;;;;;;;18.50;2.83;;;;;;;17.66;78.05;100865.63;5008584;28;20402;-68
2022/09/10 02:15:33;;;;;;;10.13;2.40;;;;;;;17.82;78.43;100866.44;4998126;28;20062;-68
2022/09/10 02:18:21;;;;;;;9.23;2.10;;;;;;;17.55;78.40;100870.09;4986965;28;20444;-67
2022/09/10 02:20:50;;;;;;;9.13;1.60;;;;;;;17.80;78.93;100863.22;4991805;28;20065;-68
2022/09/10 02:23:45;;;;;;;15.10;2.93;;;;;;;18.01;77.99;100864.94;4989232;28;20048;-67
2022/09/10 02:26:13;;;;;;;10.32;2.10;;;;;;;17.85;77.00;100862.94;4999678;28;20062;-68
2022/09/10 02:28:44;;;;;;;13.98;2.30;;;;;;;17.64;78.68;100867.94;5011400;28;20050;-68
2022/09/10 02:31:12;;;;;;;13.40;2.45;;;;;;;18.05;77.92;100857.47;4987470;28;20065;-67
2022/09/10 02:33:40;;;;;;;12.25;2.30;;;;;;;17.91;78.30;100867.09;4996858;28;20057;-68
2022/09/10 02:36:07;;;;;;;10.98;2.63;;;;;;;17.86;78.16;100878.50;4976931;28;20050;-66
2022/09/10 02:38:34;;;;;;;15.45;2.10;;;;;;;17.83;78.18;100862.50;5004327;28;20053;-67
2022/09/10 02:41:02;;;;;;;12.60;2.30;;;;;;;18.02;77.77;100867.38;4999012;28;20054;-67
2022/09/10 02:43:30;;;;;;;11.90;2.42;;;;;;;17.81;77.48;100864.84;4999237;28;20066;-68
2022/09/10 02:46:01;;;;;;;14.20;2.47;;;;;;;17.76;78.16;100873.47;4974010;28;20053;-68
2022/09/10 02:48:29;;;;;;;13.60;2.28;;;;;;;17.82;78.06;100862.84;5006701;28;20052;-67
2022/09/10 02:50:57;;;;;;;11.23;2.22;;;;;;;18.14;78.17;100860.88;4969077;28;20065;-68
2022/09/10 02:53:28;;;;;;;14.20;2.85;;;;;;;17.91;78.73;100866.28;5006851;28;20478;-67
2022/09/10 02:55:57;;;;;;;15.60;2.85;;;;;;;17.80;78.35;100859.63;4982024;28;20061;-68
2022/09/10 02:58:24;;;;;;;14.38;2.38;;;;;;;17.60;77.86;100871.81;4966517;28;20042;-67
2022/09/10 03:00:52;;;;;;;10.40;2.13;;;;;;;18.01;78.00;100873.31;5015489;28;20062;-68
2022/09/10 03:03:19;;;;;;;18.13;2.67;;;;;;;17.51;77.10;100874.75;4997314;28;20057;-68
2022/09/10 03:05:47;;;;;;;16.17;3.10;;;;;;;17.54;79.63;100871.25;4996033;28;20061;-68
2022/09/10 03:08:14;;;;;;;11.05;2.53;;;;;;;17.45;78.61;100876.13;5010077;28;20046;-68
2022/09/10 03:10:44;;;;;;;;;;;;;;;17.72;79.43;100878.13;5009686;28;20058;-68
2022/09/10 03:13:12;;;;;;;15.45;2.85;;;;;;;17.74;78.76;100875.81;4978811;28;19933;-68
2022/09/10 03:15:41;;;;;;;15.80;2.58;;;;;;;18.07;77.94;100880.22;4991005;28;20058;-67
2022/09/10 03:18:08;;;;;;;15.23;2.67;;;;;;;17.82;77.72;100874.00;4999135;28;20042;-67
2022/09/10 03:20:40;;;;;;;15.07;3.00;;;;;;;17.98;78.42;100880.41;4982222;28;20053;-67
2022/09/10 03:23:10;;;;;;;17.27;2.95;;;;;;;17.99;75.93;100880.03;5001717;28;20047;-68
2022/09/10 03:25:37;;;;;;;11.18;2.42;;;;;;;17.96;77.73;100882.72;4986047;28;20065;-68
2022/09/10 03:28:06;;;;;;;13.48;2.55;;;;;;;18.11;78.03;100876.38;5000624;28;20483;-67
2022/09/10 03:30:35;;;;;;;14.43;2.30;;;;;;;18.12;75.70;100874.38;4996993;28;20042;-68
2022/09/10 03:33:03;;;;;;;13.15;2.85;;;;;;;18.01;76.80;100873.31;4999727;28;20673;-68
2022/09/10 03:35:30;;;;;;;11.57;2.25;;;;;;;17.99;77.24;100877.25;5007719;28;20065;-68
2022/09/10 03:38:01;;;;;;;15.75;2.10;;;;;;;18.20;76.97;100874.19;4979877;28;20062;-68
2022/09/10 03:40:28;;;;;;;12.82;2.88;;;;;;;18.21;76.57;100872.22;5010989;28;20046;-68
2022/09/10 03:42:55;;;;;;;12.65;2.40;;;;;;;18.27;74.78;100876.34;5000640;28;20054;-68
2022/09/10 03:45:23;;;;;;;11.75;2.38;;;;;;;17.96;76.24;100879.94;4992455;28;20924;-67
2022/09/10 03:47:50;;;;;;;19.35;2.90;;;;;;;17.94;77.59;100876.69;5001547;28;20056;-68
2022/09/10 03:50:19;;;;;;;8.63;2.20;;;;;;;18.29;76.48;100874.03;5006987;28;20062;-69
2022/09/10 03:52:46;;;;;;;14.88;2.70;;;;;;;18.41;76.41;100885.88;4994447;28;20054;-68
2022/09/10 03:55:16;;;;;;;13.05;2.78;;;;;;;18.31;76.14;100882.81;4982752;28;20562;-69
2022/09/10 03:57:44;;;;;;;13.75;2.35;;;;;;;18.14;76.26;100889.56;4960109;28;20050;-68
2022/09/10 04:00:14;;;;;;;15.00;2.55;;;;;;;18.06;75.11;100887.78;5001862;28;20533;-69
2022/09/10 04:02:42;;;;;;;19.35;2.88;;;;;;;17.95;76.71;100887.50;4999608;28;20501;-68
2022/09/10 04:05:11;;;;;;;;;;;;;;;17.97;76.68;100884.38;4991613;28;20061;-68
2022/09/10 04:07:39;;;;;;;10.43;2.28;;;;;;;18.29;76.46;100885.19;4987723;28;19925;-68
2022/09/10 04:10:06;;;;;;;11.48;2.50;;;;;;;17.81;76.04;100889.94;4980598;28;20064;-68
2022/09/10 04:12:35;;;;;;;15.15;2.53;;;;;;;18.02;76.69;100886.88;4995175;28;20050;-68
2022/09/10 04:15:05;;;;;;;13.32;2.40;;;;;;;18.40;76.63;100889.88;4994797;28;20062;-68
2022/09/10 04:17:33;;;;;;;14.10;2.65;;;;;;;18.08;74.83;100884.63;4997638;28;20132;-68
2022/09/10 04:20:01;;;;;;;16.27;2.90;;;;;;;17.99;75.53;100890.41;4997464;28;20050;-68
2022/09/10 04:22:33;;;;;;;12.55;2.35;;;;;;;18.00;75.07;100889.22;4983720;28;20047;-68
2022/09/10 04:25:02;;;;;;;12.00;2.45;;;;;;;17.90;76.53;100890.53;4962041;28;20430;-69
2022/09/10 04:27:30;;;;;;;10.95;2.53;;;;;;;17.85;77.00;100893.59;4998625;28;20557;-67
2022/09/10 04:29:57;;;;;;;13.18;2.13;;;;;;;17.92;77.35;100899.34;4996575;28;20053;-67
2022/09/10 04:32:25;;;;;;;15.60;3.13;;;;;;;17.88;77.64;100892.09;4998481;28;20057;-67
2022/09/10 04:34:53;;;;;;;12.90;2.25;;;;;;;18.03;76.59;100894.06;4977685;28;20066;-67
2022/09/10 04:37:20;;;;;;;9.40;2.20;;;;;;;17.96;77.21;100891.09;4994961;28;20057;-67
2022/09/10 04:39:48;;;;;;;17.27;3.17;;;;;;;17.89;77.65;100890.91;4995135;28;20058;-67
2022/09/10 04:42:16;;;;;;;14.68;2.58;;;;;;;17.64;77.11;100890.22;4984091;28;20057;-66
2022/09/10 04:44:48;;;;;;;12.63;2.28;;;;;;;17.71;78.20;100886.84;5013293;28;20115;-66
2022/09/10 04:47:16;;;;;;;11.23;2.70;;;;;;;18.08;77.34;100896.56;4992706;28;20054;-66
2022/09/10 04:49:43;;;;;;;12.50;3.03;;;;;;;18.32;76.78;100890.84;4971965;28;20058;-66
2022/09/10 04:52:12;;;;;;;14.25;3.50;;;;;;;18.15;75.37;100895.97;4993108;28;20061;-69
2022/09/10 04:54:39;;;;;;;12.60;2.88;;;;;;;18.25;76.75;100896.25;4996404;28;20054;-66
2022/09/10 04:57:07;;;;;;;14.55;2.75;;;;;;;17.88;75.29;100898.47;4999115;28;20053;-67
2022/09/10 04:59:34;;;;;;;14.00;2.67;;;;;;;17.92;77.23;100898.56;4979267;28;20045;-67
2022/09/10 05:02:02;;;;;;;10.27;2.25;;;;;;;18.26;76.87;100900.63;5025445;28;20054;-67
2022/09/10 05:04:30;;;;;;;16.17;2.47;;;;;;;18.24;76.23;100902.97;5002622;28;20067;-67
2022/09/10 05:07:00;;;;;;;12.43;1.98;;;;;;;18.02;74.90;100905.56;4981496;28;20054;-68
2022/09/10 05:09:30;;;;;;;12.57;2.33;;;;;;;18.05;76.51;100910.41;4985329;28;20046;-67
2022/09/10 05:12:00;;;;;;;14.15;2.83;;;;;;;18.38;76.37;100913.66;4983074;28;20058;-67
2022/09/10 05:14:28;;;;;;;16.02;2.50;;;;;;;18.22;76.53;100915.66;5008940;28;20057;-67
2022/09/10 05:16:56;;;;;;;10.20;2.42;;;;;;;18.08;75.68;100918.09;4983378;28;20050;-67
2022/09/10 05:19:24;;;;;;;9.80;1.80;;;;;;;17.79;76.39;100920.13;5004533;28;20042;-67
2022/09/10 05:21:59;;;;;;;11.18;2.10;;;;;;;17.83;76.73;100921.03;5024038;28;20057;-68
2022/09/10 05:24:26;;;;;;;11.02;1.95;;;;;;;18.14;77.13;100925.00;4995201;28;20046;-66
2022/09/10 05:26:55;;;;;;;11.15;2.80;;;;;;;18.31;76.24;100924.63;4979214;28;20058;-68
2022/09/10 05:29:23;;;;;;;11.95;2.47;;;;;;;18.51;75.47;100930.00;5004489;28;20047;-66
2022/09/10 05:31:50;;;;;;;9.43;2.30;;;;;;;18.11;75.62;100925.72;5007962;28;20054;-67
2022/09/10 05:34:19;;;;;;;10.80;2.95;;;;;;;18.10;76.61;100929.69;5003554;28;20062;-68
2022/09/10 05:36:47;;;;;;;13.27;3.00;;;;;;;18.16;76.34;100928.25;4997269;28;20073;-67
2022/09/10 05:39:15;;;;;;;11.40;2.30;;;;;;;18.09;76.95;100928.88;4994242;28;20046;-68
2022/09/10 05:41:42;;;;;;;13.73;2.67;;;;;;;18.27;76.36;100934.91;5024162;28;20058;-68
2022/09/10 05:44:10;;;;;;;8.85;2.05;;;;;;;18.20;76.19;100927.16;5000516;28;20612;-68
2022/09/10 05:46:39;;;;;;;13.90;2.85;;;;;;;18.18;76.46;100923.13;5000291;28;20514;-68
2022/09/10 05:49:12;;;;;;;11.75;2.63;;;;;;;18.20;76.45;100929.16;4996523;28;20050;-66
2022/09/10 05:51:40;;;;;;;12.90;2.40;;;;;;;18.24;75.17;100942.00;5006709;28;20057;-68
2022/09/10 05:54:08;;;;;;;11.32;2.00;;;;;;;18.34;75.98;100946.25;4993954;28;20624;-67
2022/09/10 05:56:35;;;;;;;10.55;2.35;;;;;;;18.39;74.76;100948.78;4999422;28;20042;-67
2022/09/10 05:59:03;;;;;;;10.85;2.20;;;;;;;18.30;74.71;100948.13;5002015;28;20053;-67
2022/09/10 06:01:32;;;;;;;12.07;2.15;;;;;;;18.20;75.43;100952.25;5008511;28;20050;-67
2022/09/10 06:04:01;;;;;;;12.65;2.72;;;;;;;18.21;76.42;100953.06;4978454;28;20050;-68
2022/09/10 06:06:29;;;;;;;11.10;2.22;;;;;;;18.30;75.27;100953.72;4998608;28;20050;-67
2022/09/10 06:09:03;;;;;;;10.80;2.05;;;;;;;18.33;74.85;100956.59;4996731;28;20056;-72
2022/09/10 06:11:41;;;;;;;10.32;2.25;;;;;;;18.29;74.82;100960.47;4993438;28;20640;-68
2022/09/10 06:14:09;;;;;;;10.52;2.15;;;;;;;18.35;76.05;100962.63;4996379;28;20061;-68
2022/09/10 06:16:37;;;;;;;14.38;2.60;;;;;;;18.03;75.19;100965.75;4995329;28;20116;-70
2022/09/10 06:19:07;;;;;;;14.48;2.67;;;;;;;17.94;76.81;100979.81;4974829;28;20053;-69
2022/09/10 06:21:35;;;;;;;12.23;2.47;;;;;;;18.14;76.30;100984.38;4993311;28;20077;-69
2022/09/10 06:24:03;;;;;;;15.90;2.70;;;;;;;18.07;76.59;100991.72;4976270;28;20050;-69
2022/09/10 06:26:35;;;;;;;9.23;2.65;;;;;;;18.07;76.32;100991.72;4993750;28;20050;-69
2022/09/10 06:29:08;;;;;;;9.45;1.80;;;;;;;18.02;76.64;100981.66;4981206;28;20046;-69
2022/09/10 06:31:37;;;;;;;12.48;2.55;;;;;;;18.17;76.24;100978.06;5002707;28;20540;-68
2022/09/10 06:34:06;;;;;;;12.68;2.25;;;;;;;18.19;75.36;100983.28;4957822;28;20073;-68
2022/09/10 06:36:34;;;;;;;7.13;2.20;;;;;;;18.27;75.54;100982.31;4998515;28;20057;-68
2022/09/10 06:39:02;;;;;;;18.42;6.13;;;;;;;18.36;75.81;100992.13;5000552;28;20062;-68
2022/09/10 06:41:41;;;;;;;12.95;3.42;;;;;;;18.45;75.21;100983.59;4964186;28;20054;-68
2022/09/10 06:44:30;;;;;;;22.88;4.88;;;;;;;18.41;75.27;100993.88;5007613;28;20059;-69
2022/09/10 06:47:10;;;;;;;;;;;;;;;18.54;75.53;100984.25;4991597;28;20046;-69
2022/09/10 06:49:59;;;;;;;18.80;5.03;;;;;;;18.77;74.24;100994.41;4992687;28;19928;-69
2022/09/10 06:52:28;;;;;;;13.25;4.47;;;;;;;18.72;74.01;100989.13;5004246;28;20050;-68
2022/09/10 06:55:01;;;;;;;18.00;5.43;;;;;;;18.92;73.96;100992.75;5011778;28;20055;-69
2022/09/10 06:57:36;;;;;;;7.72;2.08;;;;;;;18.91;72.19;100993.94;4992341;28;20488;-69
2022/09/10 07:00:04;;;;;;;10.25;2.70;;;;;;;18.88;73.47;100997.47;4983028;28;20056;-69
2022/09/10 07:02:33;;;;;;;10.68;2.50;;;;;;;19.04;72.29;100995.44;4993007;28;20522;-68
2022/09/10 07:05:00;;;;;;;9.50;2.70;;;;;;;19.02;71.92;101000.59;5023687;28;20062;-68
2022/09/10 07:07:29;;;;;;;15.68;4.22;;;;;;;18.98;72.09;101002.47;4993949;28;20046;-68
2022/09/10 07:09:57;;;;;;;12.90;4.47;;;;;;;19.14;72.79;101002.44;4976035;28;20054;-68
2022/09/10 07:12:24;;;;;;;15.23;4.35;;;;;;;19.12;72.47;101010.38;4990551;28;20058;-69
2022/09/10 07:14:52;;;;;;;11.95;2.15;;;;;;;18.97;71.88;101012.00;5013161;28;20053;-69
2022/09/10 07:17:19;;;;;;;8.18;2.35;;;;;;;19.12;72.37;101016.78;4995723;28;20054;-67
2022/09/10 07:19:48;;;;;;;7.72;1.60;;;;;;;19.00;71.66;101014.91;4998378;28;20050;-68
2022/09/10 07:22:36;;;;;;;10.88;2.30;;;;;;;18.85;73.31;101021.31;5007299;28;20054;-69
2022/09/10 07:25:07;;;;;;;8.57;2.60;;;;;;;18.80;73.73;101021.59;4996763;28;20050;-68
2022/09/10 07:27:51;;;;;;;9.32;3.47;;;;;;;19.10;72.62;101019.13;4984982;28;20042;-68
2022/09/10 07:30:21;;;;;;;8.75;2.10;;;;;;;18.85;71.73;101020.50;4988425;28;20050;-70
2022/09/10 07:32:49;;;;;;;10.27;2.83;;;;;;;19.00;73.49;101020.47;5004871;28;20057;-68
2022/09/10 07:35:21;;;;;;;13.05;4.22;;;;;;;19.04;72.98;101023.34;4998836;28;20497;-69
2022/09/10 07:37:50;;;;;;;10.80;2.42;;;;;;;19.00;73.12;101028.84;4998718;28;20494;-70
2022/09/10 07:40:19;;;;;;;12.02;2.45;;;;;;;19.16;72.44;101026.03;4995385;28;20053;-68
2022/09/10 07:42:46;;;;;;;9.40;2.45;;;;;;;19.31;72.08;101016.84;4997529;28;20513;-69
2022/09/10 07:45:15;;;;;;;10.85;2.25;;;;;;;18.90;71.70;101023.81;4990999;28;20058;-69
2022/09/10 07:47:43;;;;;;;10.57;2.00;;;;;;;18.98;72.91;101028.44;5000356;28;20054;-68
2022/09/10 07:50:11;;;;;;;9.73;2.28;;;;;;;19.02;71.54;101034.09;4993309;28;20569;-68
2022/09/10 07:52:40;;;;;;;10.75;2.30;;;;;;;19.21;72.90;101039.75;4995652;28;20065;-68
2022/09/10 07:55:08;;;;;;;9.57;2.38;;;;;;;18.99;72.09;101043.19;5002920;28;20053;-70
2022/09/10 07:57:38;;;;;;;6.28;1.85;;;;;;;19.20;71.84;101042.88;5010232;28;20057;-69
2022/09/10 08:00:13;;;;;;;13.27;2.10;;;;;;;19.15;71.78;101049.56;4986773;28;20066;-69
2022/09/10 08:02:49;;;;;;;13.70;2.35;;;;;;;19.14;72.47;101050.75;4995087;28;20050;-68
2022/09/10 08:05:19;;;;;;;;;;;;;;;19.17;70.69;101052.81;4995365;28;20046;-69
2022/09/10 08:07:47;;;;;;;9.65;2.38;;;;;;;18.68;74.30;101057.97;4995872;28;19962;-68
2022/09/10 08:10:14;;;;;;;9.95;2.17;;;;;;;18.79;72.91;101055.44;4962773;28;20062;-69
2022/09/10 08:12:42;;;;;;;14.20;2.40;;;;;;;18.48;72.92;101061.81;4992513;28;20054;-70
2022/09/10 08:15:11;;;;;;;11.13;1.92;;;;;;;18.66;74.73;101056.69;4980567;28;20045;-68
2022/09/10 08:17:40;;;;;;;12.65;2.20;;;;;;;18.75;73.70;101058.16;4994784;28;20054;-69
2022/09/10 08:20:09;;;;;;;9.93;2.33;;;;;;;18.78;73.71;101059.41;4987020;28;20046;-69
2022/09/10 08:22:39;;;;;;;9.57;2.35;;;;;;;19.12;73.93;101064.25;4991367;28;20072;-69
2022/09/10 08:25:07;;;;;;;6.40;1.90;;;;;;;19.04;72.71;101062.44;4983784;28;20058;-71
2022/09/10 08:27:36;;;;;;;11.50;2.08;;;;;;;19.13;73.63;101062.25;5010060;28;20058;-70
2022/09/10 08:30:06;;;;;;;13.23;2.67;;;;;;;19.24;73.17;101054.94;4990255;28;20047;-67
2022/09/10 08:32:34;;;;;;;12.30;2.40;;;;;;;19.42;71.86;101062.59;5008124;28;20053;-67
2022/09/10 08:35:03;;;;;;;12.30;2.63;;;;;;;19.55;71.77;101060.47;5000286;28;20057;-67
2022/09/10 08:37:32;;;;;;;19.02;3.08;;;;;;;19.32;71.69;101060.38;4992559;28;20069;-67
2022/09/10 08:40:02;;;;;;;23.20;3.30;;;;;;;19.60;71.70;101063.81;5000720;28;20489;-66
2022/09/10 08:42:35;;;;;;;11.43;2.50;;;;;;;19.67;70.96;101075.13;5005034;28;20058;-67
2022/09/10 08:45:06;;;;;;;11.68;2.40;;;;;;;19.24;70.22;101072.53;5009875;28;20049;-67
2022/09/10 08:47:35;;;;;;;;;;;;;;;19.27;72.31;101074.59;5020401;28;20050;-67
2022/09/10 08:50:14;;;;;;;10.32;2.30;;;;;;;19.21;73.23;101076.03;4982650;28;19921;-68
2022/09/10 08:52:43;;;;;;;14.23;3.53;;;;;;;19.57;72.14;101077.69;4986621;28;20061;-67
2022/09/10 08:55:18;;;;;;;7.75;2.30;;;;;;;19.71;70.60;101081.63;4988365;28;20058;-68
2022/09/10 08:57:58;;;;;;;10.48;2.33;;;;;;;19.74;69.08;101080.06;5002235;28;20061;-62
2022/09/10 09:00:32;;;;;;;9.02;1.98;;;;;;;19.78;67.93;101078.16;4991879;28;21427;-63
2022/09/10 09:03:11;;;;;;;8.48;1.80;;;;;;;19.65;68.10;101085.09;4976264;28;20860;-62
2022/09/10 09:05:45;;;;;;;10.63;2.13;;;;;;;19.51;68.66;101091.13;5009109;28;20085;-63
2022/09/10 09:08:26;;;;;;;6.35;1.73;;;;;;;19.44;69.09;101095.78;4978758;28;20054;-64
2022/09/10 09:11:10;;;;;;;8.00;1.88;;;;;;;19.47;68.87;101093.06;4980322;28;20038;-62
2022/09/10 09:14:02;;;;;;;19.35;3.90;;;;;;;19.42;69.91;101095.31;4943387;28;20541;-62
2022/09/10 09:17:09;;;;;;;8.25;2.05;;;;;;;19.22;70.82;101100.00;5023156;28;20046;-63
2022/09/10 09:19:53;;;;;;;10.85;2.10;;;;;;;19.13;71.40;101104.13;4992686;28;20046;-63
2022/09/10 09:22:40;;;;;;;10.63;2.42;;;;;;;19.30;71.27;101109.38;5023236;28;20412;-63
2022/09/10 09:25:26;;;;;;;8.50;2.22;;;;;;;19.14;71.71;101106.59;5025483;28;20050;-63
2022/09/10 09:27:57;;;;;;;11.68;2.05;;;;;;;18.95;72.45;101109.31;4980048;28;20045;-63
2022/09/10 09:30:34;;;;;;;15.20;3.03;;;;;;;18.81;73.82;101112.53;4988493;28;20053;-63
2022/09/10 09:33:11;;;;;;;56.10;4.57;;;;;;;19.01;73.78;101113.44;4995194;28;20613;-63
2022/09/10 09:35:51;;;;;;;7.55;1.85;;;;;;;19.09;73.57;101121.63;4995062;28;20121;-63
2022/09/10 09:38:27;;;;;;;8.90;2.28;;;;;;;19.09;73.63;101120.81;4975851;28;20034;-63
2022/09/10 09:40:59;;;;;;;10.93;2.60;;;;;;;19.03;74.86;101120.28;5003970;28;20046;-63
2022/09/10 09:43:30;;;;;;;7.10;2.30;;;;;;;18.84;75.67;101120.19;5009008;28;20073;-63
2022/09/10 09:45:58;;;;;;;10.68;2.33;;;;;;;19.00;76.09;101117.41;4991976;28;20786;-63
2022/09/10 09:48:37;;;;;;;19.55;3.63;;;;;;;18.99;76.85;101124.16;4974865;28;20057;-63
2022/09/10 09:51:07;;;;;;;10.18;2.38;;;;;;;19.20;76.67;101121.88;5002592;28;20497;-64
2022/09/10 09:53:34;;;;;;;16.13;2.92;;;;;;;19.40;76.25;101122.81;4965355;28;20616;-64
2022/09/10 09:56:17;;;;;;;119.68;9.18;;;;;;;19.25;76.39;101132.00;5003949;28;20561;-64
2022/09/10 09:58:48;;;;;;;49.30;5.82;;;;;;;19.26;76.88;101123.25;4996895;28;20293;-64
2022/09/10 10:01:18;;;;;;;9.73;2.50;;;;;;;19.10;77.39;101133.63;4994940;28;20038;-64
2022/09/10 10:03:50;;;;;;;11.98;2.33;;;;;;;19.15;77.94;101136.13;4984008;28;20062;-63
2022/09/10 10:06:23;;;;;;;16.08;2.60;;;;;;;19.07;78.12;101140.72;4994017;28;20061;-63
2022/09/10 10:08:59;;;;;;;10.48;2.25;;;;;;;19.16;78.10;101137.75;4987580;28;20469;-64
2022/09/10 10:11:49;;;;;;;17.92;2.90;;;;;;;19.31;76.63;101138.94;4999906;28;20053;-64
2022/09/10 10:14:19;;;;;;;9.43;2.15;;;;;;;19.25;76.64;101143.16;4991053;28;20050;-63
2022/09/10 10:16:51;;;;;;;12.52;2.70;;;;;;;19.25;76.35;101141.16;5023246;28;20272;-63
2022/09/10 10:19:34;;;;;;;6.47;2.30;;;;;;;19.17;77.40;101132.97;4991886;28;20058;-65
2022/09/10 10:22:17;;;;;;;9.25;2.42;;;;;;;19.43;76.51;101144.44;4990591;28;20065;-65
2022/09/10 10:24:46;;;;;;;10.00;2.65;;;;;;;19.09;77.05;101154.31;4991906;28;20050;-64
2022/09/10 10:27:30;;;;;;;12.38;2.53;;;;;;;19.17;77.23;101147.75;5025537;28;20560;-63
2022/09/10 10:30:03;;;;;;;12.20;2.67;;;;;;;19.20;77.40;101144.22;5004556;28;20050;-62
2022/09/10 10:32:43;;;;;;;8.45;2.33;;;;;;;19.01;78.51;101144.97;4992041;28;20050;-62
2022/09/10 10:35:10;;;;;;;12.48;2.78;;;;;;;18.93;79.08;101140.34;4992427;28;20078;-63
2022/09/10 10:38:02;;;;;;;9.85;2.80;;;;;;;19.08;78.66;101147.13;4992263;28;20204;-62
2022/09/10 10:40:37;;;;;;;9.82;2.53;;;;;;;18.84;80.17;101141.72;4983183;28;20050;-63
2022/09/10 10:43:25;;;;;;;9.50;2.60;;;;;;;18.90;80.59;101141.06;5019147;28;20050;-61
2022/09/10 10:46:00;;;;;;;9.20;2.47;;;;;;;18.84;81.64;101144.50;4993730;28;20074;-64
2022/09/10 10:49:04;;;;;;;11.15;2.95;;;;;;;18.90;82.93;101143.03;4997805;28;20501;-62
2022/09/10 10:51:52;;;;;;;12.43;3.58;;;;;;;19.05;82.86;101143.09;4993739;28;20047;-62
2022/09/10 10:54:42;;;;;;;9.43;3.55;;;;;;;19.16;81.83;101142.53;5002966;28;20065;-63
2022/09/10 10:57:24;;;;;;;8.02;3.05;;;;;;;18.90;83.73;101137.47;5002628;28;20058;-62
2022/09/10 11:00:06;;;;;;;10.15;3.10;;;;;;;19.01;83.45;101147.75;4998078;28;20056;-62
2022/09/10 11:02:42;;;;;;;11.27;3.53;;;;;;;19.08;82.77;101142.34;5006962;28;20055;-64
2022/09/10 11:05:17;;;;;;;13.63;5.95;;;;;;;19.32;82.43;101137.78;5002595;28;20050;-64
2022/09/10 11:07:46;;;;;;;12.57;3.45;;;;;;;19.24;80.55;101145.16;4997729;28;20058;-66
2022/09/10 11:10:26;;;;;;;9.10;3.08;;;;;;;19.08;81.66;101133.97;4992776;28;20777;-64
2022/09/10 11:13:05;;;;;;;11.88;4.25;;;;;;;19.19;81.23;101134.25;4959662;28;20058;-65
2022/09/10 11:15:35;;;;;;;8.15;3.45;;;;;;;19.12;81.99;101134.06;4981577;28;20054;-63
2022/09/10 11:18:12;;;;;;;9.98;2.83;;;;;;;19.20;81.46;101124.69;4998945;28;20517;-65
2022/09/10 11:20:57;;;;;;;12.07;3.13;;;;;;;19.45;80.55;101126.13;4998437;28;20051;-65
2022/09/10 11:23:28;;;;;;;7.45;2.72;;;;;;;19.22;80.81;101121.53;5003198;28;20054;-66
2022/09/10 11:26:18;;;;;;;8.48;2.80;;;;;;;19.32;81.33;101132.19;5002451;28;20054;-66
2022/09/10 11:28:54;;;;;;;11.35;2.97;;;;;;;19.55;81.67;101119.16;5000051;28;20568;-65
2022/09/10 11:32:09;;;;;;;11.32;3.05;;;;;;;19.68;79.84;101112.28;5002490;28;20049;-65
2022/09/10 11:35:03;;;;;;;9.60;3.33;;;;;;;20.03;78.29;101127.06;4994655;28;20066;-63
2022/09/10 11:38:07;;;;;;;10.55;5.35;;;;;;;20.10;77.55;101128.00;5014034;28;20520;-66
2022/09/10 11:40:40;;;;;;;11.23;3.47;;;;;;;20.12;77.17;101124.81;5003017;28;20050;-65
2022/09/10 11:43:42;;;;;;;5.85;2.35;;;;;;;19.75;77.01;101115.25;4995573;28;20053;-66
2022/09/10 11:46:15;;;;;;;6.80;2.78;;;;;;;19.61;79.01;101121.34;4993042;28;20054;-66